createdAt,value
2023-02-25T00:01:32.349Z,11.27
2023-02-25T00:03:35.122Z,10.77
2023-02-25T00:05:40.740Z,12.13
2023-02-25T00:07:42.999Z,11.73
2023-02-25T00:09:44.872Z,11.87
2023-02-25T00:11:46.788Z,12.80
2023-02-25T00:13:48.451Z,11.60
2023-02-25T00:15:50.173Z,12.30
2023-02-25T00:17:52.065Z,11.10
2023-02-25T00:19:54.997Z,11.80
2023-02-25T00:21:56.697Z,11.73
2023-02-25T00:24:07.330Z,10.47
2023-02-25T00:26:17.666Z,10.17
2023-02-25T00:28:19.320Z,8.87
2023-02-25T00:30:21.081Z,9.50
2023-02-25T00:32:23.482Z,9.57
2023-02-25T00:34:26.240Z,9.17
2023-02-25T00:36:27.993Z,11.07
2023-02-25T00:38:29.735Z,12.30
2023-02-25T00:40:31.403Z,9.43
2023-02-25T00:42:33.085Z,9.07
2023-02-25T00:44:35.091Z,9.97
2023-02-25T00:46:36.779Z,8.67
2023-02-25T00:48:39.457Z,7.30
2023-02-25T00:50:41.096Z,8.60
2023-02-25T00:52:42.795Z,8.63
2023-02-25T00:54:44.425Z,9.50
2023-02-25T00:56:46.156Z,8.30
2023-02-25T00:58:49.535Z,7.83
2023-02-25T01:00:52.162Z,8.30
2023-02-25T01:02:57.101Z,8.30
2023-02-25T01:04:59.176Z,8.03
2023-02-25T01:07:03.402Z,8.30
2023-02-25T01:09:07.681Z,8.53
2023-02-25T01:11:21.129Z,8.23
2023-02-25T01:13:22.830Z,8.47
2023-02-25T01:15:24.528Z,6.37
2023-02-25T01:17:26.535Z,7.60
2023-02-25T01:19:29.047Z,7.67
2023-02-25T01:21:37.540Z,6.67
2023-02-25T01:23:39.560Z,7.43
2023-02-25T01:25:41.871Z,7.47
2023-02-25T01:27:44.051Z,7.00
2023-02-25T01:29:45.844Z,8.00
2023-02-25T01:31:48.271Z,8.70
2023-02-25T01:33:51.204Z,7.10
2023-02-25T01:35:53.032Z,7.00
2023-02-25T01:37:55.501Z,7.50
2023-02-25T01:39:57.765Z,6.90
2023-02-25T01:42:02.706Z,9.10
2023-02-25T01:44:22.210Z,8.40
2023-02-25T01:46:24.367Z,5.90
2023-02-25T01:48:29.881Z,6.17
2023-02-25T01:50:37.505Z,6.37
2023-02-25T01:52:41.558Z,6.20
2023-02-25T01:54:45.672Z,5.57
2023-02-25T01:56:51.636Z,5.73
2023-02-25T01:58:54.454Z,5.23
2023-02-25T02:00:56.356Z,5.07
2023-02-25T02:02:58.612Z,5.70
2023-02-25T02:05:00.840Z,5.27
2023-02-25T02:07:04.281Z,5.37
2023-02-25T02:09:09.631Z,5.30
2023-02-25T02:11:11.732Z,5.10
2023-02-25T02:13:13.532Z,5.70
2023-02-25T02:15:16.234Z,5.23
2023-02-25T02:17:24.611Z,5.13
2023-02-25T02:19:48.140Z,5.30
2023-02-25T02:22:10.114Z,5.13
2023-02-25T02:24:32.943Z,5.60
2023-02-25T02:26:52.146Z,4.60
2023-02-25T02:29:21.885Z,3.90
2023-02-25T02:31:42.109Z,4.80
2023-02-25T02:34:48.832Z,4.20
2023-02-25T02:37:19.850Z,3.90
2023-02-25T02:39:27.486Z,3.83
2023-02-25T02:41:41.894Z,3.80
2023-02-25T02:44:06.642Z,3.57
2023-02-25T02:46:12.244Z,2.90
2023-02-25T02:48:28.995Z,3.43
2023-02-25T02:50:37.969Z,2.90
2023-02-25T02:52:48.060Z,2.50
2023-02-25T02:54:58.191Z,3.90
2023-02-25T02:57:01.236Z,2.90
2023-02-25T02:59:07.761Z,3.47
2023-02-25T03:01:18.269Z,2.77
2023-02-25T03:03:35.989Z,3.17
2023-02-25T03:05:40.214Z,3.80
2023-02-25T03:07:45.295Z,3.27
2023-02-25T03:09:55.315Z,3.27
2023-02-25T03:11:57.334Z,3.13
2023-02-25T03:13:59.313Z,3.27
2023-02-25T03:16:05.861Z,3.37
2023-02-25T03:18:18.836Z,3.20
2023-02-25T03:20:30.991Z,4.10
2023-02-25T03:22:39.520Z,4.70
2023-02-25T03:24:51.954Z,3.33
2023-02-25T03:26:53.864Z,3.17
2023-02-25T03:28:55.997Z,3.53
2023-02-25T03:31:23.829Z,4.47
2023-02-25T03:33:57.909Z,4.20
2023-02-25T03:36:03.376Z,3.67
2023-02-25T03:38:09.820Z,3.90
2023-02-25T03:40:15.194Z,3.80
2023-02-25T03:42:21.944Z,4.00
2023-02-25T03:44:30.386Z,3.80
2023-02-25T03:46:33.387Z,3.80
2023-02-25T03:48:36.730Z,5.03
2023-02-25T03:50:47.046Z,4.50
2023-02-25T03:52:48.874Z,4.00
2023-02-25T03:54:52.539Z,4.17
2023-02-25T03:56:54.223Z,4.10
2023-02-25T03:58:55.926Z,4.90
2023-02-25T04:00:58.403Z,4.77
2023-02-25T04:03:00.808Z,4.67
2023-02-25T04:05:02.445Z,4.20
2023-02-25T04:07:04.208Z,4.23
2023-02-25T04:09:06.204Z,4.07
2023-02-25T04:11:08.343Z,4.60
2023-02-25T04:13:12.263Z,4.37
2023-02-25T04:15:14.598Z,4.43
2023-02-25T04:17:17.084Z,4.80
2023-02-25T04:19:18.764Z,5.37
2023-02-25T04:21:28.594Z,5.03
2023-02-25T04:23:30.350Z,4.80
2023-02-25T04:25:32.880Z,4.40
2023-02-25T04:27:34.616Z,4.20
2023-02-25T04:29:36.434Z,4.53
2023-02-25T04:31:38.476Z,4.10
2023-02-25T04:33:40.272Z,4.50
2023-02-25T04:35:41.962Z,4.20
2023-02-25T04:37:44.268Z,4.10
2023-02-25T04:39:45.949Z,2.73
2023-02-25T04:41:47.727Z,3.60
2023-02-25T04:43:49.897Z,2.90
2023-02-25T04:45:54.675Z,3.40
2023-02-25T04:47:59.855Z,3.10
2023-02-25T04:50:01.835Z,2.77
2023-02-25T04:52:03.564Z,2.10
2023-02-25T04:54:05.628Z,2.70
2023-02-25T04:56:09.730Z,3.03
2023-02-25T04:58:11.670Z,2.00
2023-02-25T05:00:19.243Z,2.00
2023-02-25T05:02:21.011Z,2.30
2023-02-25T05:04:22.751Z,1.93
2023-02-25T05:06:25.749Z,1.90
2023-02-25T05:08:28.444Z,1.93
2023-02-25T05:10:30.332Z,1.70
2023-02-25T05:12:32.906Z,1.63
2023-02-25T05:14:34.969Z,1.93
2023-02-25T05:16:36.970Z,2.27
2023-02-25T05:18:42.812Z,1.37
2023-02-25T05:20:46.513Z,1.97
2023-02-25T05:22:48.546Z,1.70
2023-02-25T05:24:50.420Z,1.50
2023-02-25T05:26:52.539Z,1.37
2023-02-25T05:28:56.766Z,1.63
2023-02-25T05:30:58.991Z,1.80
2023-02-25T05:33:01.115Z,1.70
2023-02-25T05:35:02.940Z,1.70
2023-02-25T05:37:04.652Z,1.70
2023-02-25T05:39:06.569Z,2.00
2023-02-25T05:41:10.581Z,1.27
2023-02-25T05:43:12.227Z,1.80
2023-02-25T05:45:13.963Z,1.90
2023-02-25T05:47:16.198Z,1.90
2023-02-25T05:49:18.035Z,1.50
2023-02-25T05:51:23.303Z,1.43
2023-02-25T05:53:25.262Z,1.83
2023-02-25T05:55:27.210Z,1.57
2023-02-25T05:57:29.254Z,1.60
2023-02-25T05:59:31.615Z,1.37
2023-02-25T06:01:33.680Z,1.47
2023-02-25T06:03:35.421Z,2.33
2023-02-25T06:05:40.693Z,1.73
2023-02-25T06:07:42.390Z,1.57
2023-02-25T06:09:44.102Z,1.60
2023-02-25T06:11:47.752Z,1.67
2023-02-25T06:13:51.058Z,1.30
2023-02-25T06:15:52.859Z,1.33
2023-02-25T06:17:55.596Z,1.57
2023-02-25T06:19:57.477Z,1.40
2023-02-25T06:21:59.390Z,1.20
2023-02-25T06:24:05.289Z,1.63
2023-02-25T06:26:10.272Z,1.50
2023-02-25T06:28:12.926Z,1.73
2023-02-25T06:30:15.088Z,1.57
2023-02-25T06:32:17.687Z,1.50
2023-02-25T06:34:20.309Z,1.77
2023-02-25T06:36:23.566Z,1.50
2023-02-25T06:38:26.186Z,1.77
2023-02-25T06:40:33.750Z,1.77
2023-02-25T06:42:35.500Z,1.30
2023-02-25T06:44:37.360Z,2.23
2023-02-25T06:46:39.478Z,1.23
2023-02-25T06:48:41.388Z,1.37
2023-02-25T06:50:43.388Z,1.77
2023-02-25T06:52:45.189Z,1.27
2023-02-25T06:54:46.869Z,1.57
2023-02-25T06:56:48.595Z,1.40
2023-02-25T06:58:52.596Z,1.50
2023-02-25T07:00:54.473Z,1.30
2023-02-25T07:02:56.291Z,1.23
2023-02-25T07:04:58.063Z,1.17
2023-02-25T07:06:59.836Z,1.20
2023-02-25T07:09:01.591Z,1.57
2023-02-25T07:11:18.788Z,1.57
2023-02-25T07:13:21.482Z,1.47
2023-02-25T07:15:23.261Z,1.60
2023-02-25T07:17:25.106Z,1.50
2023-02-25T07:19:26.953Z,1.30
2023-02-25T07:21:30.950Z,1.77
2023-02-25T07:23:33.024Z,1.20
2023-02-25T07:25:34.985Z,1.33
2023-02-25T07:27:36.834Z,2.00
2023-02-25T07:29:38.642Z,1.40
2023-02-25T07:31:40.838Z,1.13
2023-02-25T07:33:43.059Z,1.37
2023-02-25T07:35:45.165Z,1.73
2023-02-25T07:37:46.863Z,1.27
2023-02-25T07:39:48.510Z,1.50
2023-02-25T07:41:50.295Z,1.67
2023-02-25T07:43:52.689Z,1.57
2023-02-25T07:45:57.506Z,1.43
2023-02-25T07:47:59.310Z,3.20
2023-02-25T07:50:01.016Z,1.60
2023-02-25T07:52:02.875Z,1.70
2023-02-25T07:54:04.883Z,1.90
2023-02-25T07:56:08.254Z,1.50
2023-02-25T07:58:10.329Z,2.07
2023-02-25T08:00:12.391Z,1.30
2023-02-25T08:02:15.537Z,1.70
2023-02-25T08:04:17.656Z,1.30
2023-02-25T08:06:20.866Z,1.40
2023-02-25T08:08:22.500Z,1.43
2023-02-25T08:10:24.532Z,1.30
2023-02-25T08:12:26.277Z,1.37
2023-02-25T08:14:28.799Z,1.87
2023-02-25T08:16:30.548Z,1.23
2023-02-25T08:18:32.236Z,1.40
2023-02-25T08:20:34.075Z,1.53
2023-02-25T08:22:35.862Z,1.37
2023-02-25T08:24:41.130Z,1.57
2023-02-25T08:26:42.772Z,1.60
2023-02-25T08:28:45.418Z,1.50
2023-02-25T08:30:47.215Z,1.57
2023-02-25T08:32:49.302Z,1.57
2023-02-25T08:34:52.166Z,1.20
2023-02-25T08:36:54.197Z,1.93
2023-02-25T08:38:57.608Z,1.50
2023-02-25T08:41:00.656Z,1.90
2023-02-25T08:43:02.351Z,1.70
2023-02-25T08:45:05.087Z,1.30
2023-02-25T08:47:06.824Z,1.50
2023-02-25T08:49:10.104Z,1.80
2023-02-25T08:51:12.017Z,2.07
2023-02-25T08:53:13.758Z,1.87
2023-02-25T08:55:16.021Z,1.20
2023-02-25T08:57:17.709Z,1.70
2023-02-25T08:59:19.465Z,1.50
2023-02-25T09:01:22.316Z,1.80
2023-02-25T09:03:24.529Z,1.80
2023-02-25T09:05:26.566Z,1.50
2023-02-25T09:07:28.266Z,1.60
2023-02-25T09:09:30.234Z,1.83
2023-02-25T09:11:32.762Z,1.47
2023-02-25T09:13:34.845Z,1.47
2023-02-25T09:15:36.501Z,1.23
2023-02-25T09:17:39.316Z,1.37
2023-02-25T09:19:41.025Z,1.33
2023-02-25T09:21:43.177Z,1.33
2023-02-25T09:23:46.720Z,1.43
2023-02-25T09:25:48.430Z,1.57
2023-02-25T09:27:50.135Z,1.10
2023-02-25T09:29:52.215Z,1.40
2023-02-25T09:31:54.494Z,1.30
2023-02-25T09:33:56.474Z,1.77
2023-02-25T09:36:16.263Z,1.50
2023-02-25T09:38:18.511Z,1.00
2023-02-25T09:40:22.953Z,1.60
2023-02-25T09:42:31.679Z,1.40
2023-02-25T09:44:39.351Z,1.73
2023-02-25T09:46:49.284Z,1.37
2023-02-25T09:48:57.897Z,1.10
2023-02-25T09:51:18.429Z,1.47
2023-02-25T09:53:30.409Z,1.20
2023-02-25T09:55:41.650Z,1.20
2023-02-25T09:57:57.364Z,1.00
2023-02-25T09:59:59.424Z,1.30
2023-02-25T10:02:19.836Z,1.40
2023-02-25T10:04:24.631Z,2.00
2023-02-25T10:06:36.525Z,1.07
2023-02-25T10:08:57.159Z,1.00
2023-02-25T10:11:12.584Z,1.03
2023-02-25T10:13:23.466Z,1.10
2023-02-25T10:15:33.077Z,1.80
2023-02-25T10:18:13.122Z,0.80
2023-02-25T10:20:35.277Z,1.07
2023-02-25T10:23:12.300Z,0.90
2023-02-25T10:25:18.450Z,0.80
2023-02-25T10:27:33.642Z,1.83
2023-02-25T10:29:59.797Z,0.80
2023-02-25T10:32:17.521Z,1.00
2023-02-25T10:34:26.143Z,1.10
2023-02-25T10:36:32.569Z,1.10
2023-02-25T10:38:35.735Z,0.80
2023-02-25T10:40:37.513Z,1.03
2023-02-25T10:42:39.152Z,1.10
2023-02-25T10:44:41.706Z,0.90
2023-02-25T10:47:05.279Z,1.40
2023-02-25T10:49:23.667Z,0.87
2023-02-25T10:51:29.725Z,0.90
2023-02-25T10:53:33.150Z,1.03
2023-02-25T10:55:51.549Z,1.17
2023-02-25T10:57:53.841Z,0.90
2023-02-25T11:00:13.278Z,0.90
2023-02-25T11:02:28.392Z,1.00
2023-02-25T11:04:37.514Z,1.23
2023-02-25T11:06:42.594Z,1.50
2023-02-25T11:08:44.675Z,1.10
2023-02-25T11:11:13.809Z,1.10
2023-02-25T11:13:29.672Z,1.50
2023-02-25T11:15:45.326Z,1.13
2023-02-25T11:17:48.462Z,1.40
2023-02-25T11:20:00.010Z,1.00
2023-02-25T11:22:09.569Z,1.27
2023-02-25T11:24:20.086Z,1.20
2023-02-25T11:26:38.021Z,1.40
2023-02-25T11:28:46.307Z,0.90
2023-02-25T11:30:48.305Z,1.40
2023-02-25T11:32:57.789Z,1.30
2023-02-25T11:35:10.484Z,1.10
2023-02-25T11:39:59.559Z,2.70
2023-02-25T11:42:24.155Z,1.13
2023-02-25T11:44:42.075Z,1.23
2023-02-25T11:46:46.472Z,1.37
2023-02-25T11:48:57.275Z,1.30
2023-02-25T11:51:37.757Z,1.63
2023-02-25T11:53:54.370Z,13.20
2023-02-25T11:56:09.748Z,1.53
2023-02-25T11:58:32.546Z,1.87
2023-02-25T12:00:54.607Z,1.57
2023-02-25T12:03:28.028Z,1.73
2023-02-25T12:05:38.821Z,1.13
2023-02-25T12:08:12.512Z,1.27
2023-02-25T12:10:33.208Z,1.10
2023-02-25T12:12:53.747Z,1.47
2023-02-25T12:15:01.268Z,1.50
2023-02-25T12:17:17.102Z,1.10
2023-02-25T12:19:31.183Z,1.50
2023-02-25T12:22:12.698Z,1.70
2023-02-25T12:24:38.646Z,1.60
2023-02-25T12:27:18.003Z,1.33
2023-02-25T12:30:08.596Z,1.90
2023-02-25T12:32:53.866Z,1.60
2023-02-25T12:35:17.052Z,1.13
2023-02-25T12:37:41.465Z,1.70
2023-02-25T12:40:27.647Z,1.70
2023-02-25T12:43:07.212Z,2.17
2023-02-25T12:45:40.793Z,1.80
2023-02-25T12:47:54.969Z,2.23
2023-02-25T12:50:15.636Z,2.37
2023-02-25T12:52:35.647Z,2.03
2023-02-25T12:55:04.644Z,1.57
2023-02-25T12:57:18.471Z,2.47
2023-02-25T12:59:41.539Z,2.00
2023-02-25T13:02:22.540Z,1.60
2023-02-25T13:04:29.912Z,1.40
2023-02-25T13:06:49.911Z,1.00
2023-02-25T13:09:26.260Z,1.30
2023-02-25T13:12:15.440Z,1.07
2023-02-25T13:14:55.732Z,1.20
2023-02-25T13:17:18.740Z,3.40
2023-02-25T13:19:35.312Z,1.20
2023-02-25T13:22:00.542Z,0.97
2023-02-25T13:24:21.162Z,1.30
2023-02-25T13:27:01.180Z,1.07
2023-02-25T13:29:05.874Z,1.30
2023-02-25T13:31:18.105Z,1.37
2023-02-25T13:33:34.843Z,1.60
2023-02-25T13:35:55.269Z,1.20
2023-02-25T13:38:09.012Z,1.10
2023-02-25T13:40:17.130Z,1.23
2023-02-25T13:42:54.376Z,1.33
2023-02-25T13:45:14.140Z,1.30
2023-02-25T13:47:32.710Z,1.57
2023-02-25T13:50:02.845Z,1.30
2023-02-25T13:52:27.939Z,1.10
2023-02-25T13:55:04.719Z,1.30
2023-02-25T13:57:38.195Z,2.00
2023-02-25T13:59:59.101Z,1.40
2023-02-25T14:02:23.294Z,1.70
2023-02-25T14:04:54.992Z,1.77
2023-02-25T14:07:08.648Z,1.37
2023-02-25T14:09:43.046Z,1.47
2023-02-25T14:12:11.619Z,1.60
2023-02-25T14:14:38.003Z,1.60
2023-02-25T14:16:56.026Z,2.20
2023-02-25T14:19:19.685Z,1.50
2023-02-25T14:21:58.884Z,1.80
2023-02-25T14:24:16.565Z,1.60
2023-02-25T14:26:27.201Z,4.50
2023-02-25T14:28:52.879Z,1.93
2023-02-25T14:31:24.645Z,1.50
2023-02-25T14:33:58.025Z,1.70
2023-02-25T14:36:26.708Z,1.43
2023-02-25T14:39:00.787Z,8.53
2023-02-25T14:41:22.057Z,1.33
2023-02-25T14:43:30.002Z,2.00
2023-02-25T14:45:38.211Z,1.50
2023-02-25T14:47:59.325Z,1.70
2023-02-25T14:50:15.400Z,1.60
2023-02-25T14:52:40.039Z,1.57
2023-02-25T14:55:25.304Z,2.50
2023-02-25T14:58:14.641Z,1.83
2023-02-25T15:00:23.562Z,1.53
2023-02-25T15:02:37.508Z,1.50
2023-02-25T15:05:08.434Z,1.40
2023-02-25T15:07:41.247Z,1.63
2023-02-25T15:10:16.678Z,2.13
2023-02-25T15:12:47.943Z,1.50
2023-02-25T15:15:23.994Z,1.60
2023-02-25T15:18:11.825Z,19.77
2023-02-25T15:20:38.974Z,10.80
2023-02-25T15:22:55.565Z,15.90
2023-02-25T15:25:20.407Z,5.33
2023-02-25T15:27:33.114Z,4.07
2023-02-25T15:29:34.838Z,2.27
2023-02-25T15:31:39.154Z,7.73
2023-02-25T15:33:42.371Z,43.30
2023-02-25T15:35:57.776Z,69.40
2023-02-25T15:38:13.623Z,55.57
2023-02-25T15:40:15.422Z,177.10
2023-02-25T15:42:37.255Z,133.50
2023-02-25T15:44:43.707Z,50.33
2023-02-25T15:46:47.858Z,85.27
2023-02-25T15:49:07.866Z,88.23
2023-02-25T15:51:13.026Z,130.53
2023-02-25T15:53:21.160Z,33.37
2023-02-25T15:55:41.469Z,19.70
2023-02-25T15:57:43.369Z,4.20
2023-02-25T15:59:48.736Z,2.33
2023-02-25T16:01:52.008Z,3.00
2023-02-25T16:03:53.934Z,3.20
2023-02-25T16:06:01.673Z,3.30
2023-02-25T16:08:16.287Z,2.10
2023-02-25T16:10:41.620Z,4.07
2023-02-25T16:12:44.789Z,4.50
2023-02-25T16:14:47.099Z,3.37
2023-02-25T16:16:57.533Z,3.97
2023-02-25T16:19:00.542Z,3.37
2023-02-25T16:21:08.396Z,16.20
2023-02-25T16:23:11.103Z,63.50
2023-02-25T16:25:22.015Z,41.00
2023-02-25T16:27:30.354Z,11.30
2023-02-25T16:29:47.112Z,9.60
2023-02-25T16:32:18.504Z,9.10
2023-02-25T16:34:30.062Z,6.80
2023-02-25T16:37:11.896Z,7.83
2023-02-25T16:39:26.464Z,5.40
2023-02-25T16:41:37.709Z,5.40
2023-02-25T16:43:42.912Z,7.60
2023-02-25T16:45:53.569Z,4.73
2023-02-25T16:48:02.491Z,7.50
2023-02-25T16:50:12.578Z,7.03
2023-02-25T16:52:19.353Z,5.03
2023-02-25T16:54:37.095Z,5.33
2023-02-25T16:56:42.077Z,8.20
2023-02-25T16:58:43.757Z,7.40
2023-02-25T17:00:51.948Z,7.43
2023-02-25T17:03:00.245Z,7.90
2023-02-25T17:05:01.913Z,7.60
2023-02-25T17:07:12.119Z,10.40
2023-02-25T17:09:33.763Z,12.73
2023-02-25T17:11:35.969Z,9.87
2023-02-25T17:13:41.754Z,8.70
2023-02-25T17:15:45.114Z,9.33
2023-02-25T17:17:50.830Z,9.10
2023-02-25T17:19:52.772Z,10.93
2023-02-25T17:21:57.239Z,12.27
2023-02-25T17:24:00.533Z,9.57
2023-02-25T17:26:02.812Z,11.33
2023-02-25T17:28:06.822Z,10.17
2023-02-25T17:30:41.635Z,11.10
2023-02-25T17:32:59.166Z,7.33
2023-02-25T17:35:03.376Z,5.87
2023-02-25T17:37:07.225Z,7.73
2023-02-25T17:39:15.044Z,2.77
2023-02-25T17:41:20.945Z,2.60
2023-02-25T17:43:23.785Z,2.20
2023-02-25T17:45:57.996Z,2.33
2023-02-25T17:47:59.756Z,1.80
2023-02-25T17:50:30.430Z,1.70
2023-02-25T17:52:32.574Z,1.80
2023-02-25T17:54:37.516Z,2.00
2023-02-25T17:56:39.603Z,2.10
2023-02-25T17:58:42.005Z,2.60
2023-02-25T18:01:00.399Z,2.97
2023-02-25T18:03:19.052Z,5.00
2023-02-25T18:05:29.993Z,3.90
2023-02-25T18:07:32.945Z,4.63
2023-02-25T18:09:40.926Z,4.80
2023-02-25T18:11:42.776Z,3.90
2023-02-25T18:13:44.504Z,4.50
2023-02-25T18:15:50.806Z,3.97
2023-02-25T18:17:57.497Z,4.30
2023-02-25T18:20:07.623Z,4.80
2023-02-25T18:22:26.261Z,4.00
2023-02-25T18:24:34.633Z,4.10
2023-02-25T18:26:36.834Z,4.47
2023-02-25T18:28:39.025Z,4.10
2023-02-25T18:30:40.817Z,4.23
2023-02-25T18:32:42.543Z,3.07
2023-02-25T18:34:44.287Z,3.67
2023-02-25T18:36:46.044Z,4.40
2023-02-25T18:38:47.698Z,4.17
2023-02-25T18:40:51.179Z,3.50
2023-02-25T18:42:52.943Z,3.40
2023-02-25T18:44:54.732Z,3.97
2023-02-25T18:46:56.523Z,4.07
2023-02-25T18:48:58.210Z,4.93
2023-02-25T18:51:00.113Z,4.70
2023-02-25T18:53:03.217Z,6.73
2023-02-25T18:55:16.565Z,6.40
2023-02-25T18:57:23.348Z,6.30
2023-02-25T18:59:25.071Z,6.33
2023-02-25T19:01:31.160Z,7.17
2023-02-25T19:03:37.834Z,8.70
2023-02-25T19:05:39.505Z,8.80
2023-02-25T19:07:42.225Z,6.87
2023-02-25T19:09:43.918Z,10.43
2023-02-25T19:11:45.751Z,7.33
2023-02-25T19:13:47.530Z,8.73
2023-02-25T19:15:49.271Z,6.50
2023-02-25T19:17:51.187Z,5.73
2023-02-25T19:19:53.073Z,5.27
2023-02-25T19:21:54.828Z,6.23
2023-02-25T19:23:56.521Z,6.33
2023-02-25T19:26:01.279Z,6.00
2023-02-25T19:28:04.786Z,6.70
2023-02-25T19:30:12.502Z,8.30
2023-02-25T19:32:14.452Z,11.90
2023-02-25T19:34:16.124Z,9.00
2023-02-25T19:36:18.928Z,9.60
2023-02-25T19:38:20.780Z,16.33
2023-02-25T19:40:22.938Z,12.60
2023-02-25T19:42:24.648Z,20.50
2023-02-25T19:44:26.333Z,11.07
2023-02-25T19:46:28.733Z,8.70
2023-02-25T19:48:30.444Z,11.43
2023-02-25T19:50:34.896Z,10.33
2023-02-25T19:52:36.680Z,8.47
2023-02-25T19:54:38.738Z,9.27
2023-02-25T19:56:40.575Z,8.93
2023-02-25T19:58:42.271Z,9.03
2023-02-25T20:00:46.330Z,7.13
2023-02-25T20:02:48.668Z,6.20
2023-02-25T20:04:50.354Z,6.83
2023-02-25T20:06:52.029Z,6.77
2023-02-25T20:08:55.844Z,6.10
2023-02-25T20:10:57.795Z,7.53
2023-02-25T20:12:59.470Z,6.30
2023-02-25T20:15:01.482Z,5.67
2023-02-25T20:17:03.240Z,5.53
2023-02-25T20:19:05.520Z,7.10
2023-02-25T20:21:07.306Z,6.97
2023-02-25T20:23:09.090Z,7.07
2023-02-25T20:25:13.304Z,7.10
2023-02-25T20:27:15.354Z,9.27
2023-02-25T20:29:17.255Z,10.53
2023-02-25T20:31:19.281Z,10.60
2023-02-25T20:33:21.081Z,8.93
2023-02-25T20:35:25.363Z,7.97
2023-02-25T20:37:31.291Z,7.67
2023-02-25T20:39:38.826Z,6.17
2023-02-25T20:41:45.032Z,5.87
2023-02-25T20:43:46.852Z,6.90
2023-02-25T20:45:49.648Z,6.73
2023-02-25T20:47:51.523Z,7.07
2023-02-25T20:49:55.155Z,6.30
2023-02-25T20:51:57.257Z,6.73
2023-02-25T20:53:59.554Z,5.90
2023-02-25T20:56:01.556Z,5.70
2023-02-25T20:58:03.309Z,7.20
2023-02-25T21:00:09.069Z,6.47
2023-02-25T21:02:12.266Z,5.37
2023-02-25T21:04:14.143Z,5.20
2023-02-25T21:06:17.380Z,5.87
2023-02-25T21:08:19.008Z,5.00
2023-02-25T21:10:20.847Z,5.50
2023-02-25T21:12:22.655Z,6.80
2023-02-25T21:14:24.792Z,5.80
2023-02-25T21:16:26.987Z,5.90
2023-02-25T21:18:29.190Z,4.63
2023-02-25T21:20:31.081Z,4.87
2023-02-25T21:22:33.767Z,5.27
2023-02-25T21:24:36.771Z,5.80
2023-02-25T21:26:41.581Z,7.00
2023-02-25T21:28:43.674Z,5.20
2023-02-25T21:30:45.510Z,6.30
2023-02-25T21:32:47.322Z,5.80
2023-02-25T21:34:49.313Z,5.27
2023-02-25T21:36:51.066Z,4.50
2023-02-25T21:38:52.816Z,4.17
2023-02-25T21:40:55.874Z,4.80
2023-02-25T21:42:58.040Z,4.10
2023-02-25T21:44:59.772Z,3.60
2023-02-25T21:47:01.507Z,4.17
2023-02-25T21:49:03.537Z,3.10
2023-02-25T21:51:06.033Z,4.10
2023-02-25T21:53:07.671Z,4.10
2023-02-25T21:55:09.920Z,3.60
2023-02-25T21:57:11.684Z,3.90
2023-02-25T21:59:16.571Z,3.57
2023-02-25T22:01:23.783Z,3.23
2023-02-25T22:03:25.546Z,2.60
2023-02-25T22:05:27.517Z,2.67
2023-02-25T22:07:29.379Z,2.67
2023-02-25T22:09:31.453Z,2.40
2023-02-25T22:11:35.797Z,2.50
2023-02-25T22:13:37.498Z,2.83
2023-02-25T22:15:39.281Z,3.20
2023-02-25T22:17:40.976Z,2.40
2023-02-25T22:19:42.755Z,2.90
2023-02-25T22:21:44.642Z,2.33
2023-02-25T22:23:48.685Z,3.37
2023-02-25T22:25:50.420Z,2.63
2023-02-25T22:27:52.193Z,3.90
2023-02-25T22:29:53.877Z,3.30
2023-02-25T22:31:55.708Z,4.33
2023-02-25T22:33:59.228Z,8.80
2023-02-25T22:36:03.014Z,8.47
2023-02-25T22:38:04.720Z,6.77
2023-02-25T22:40:06.985Z,8.40
2023-02-25T22:42:08.708Z,5.43
2023-02-25T22:44:10.549Z,5.07
2023-02-25T22:46:15.664Z,3.67
2023-02-25T22:48:17.577Z,4.33
2023-02-25T22:50:21.090Z,5.00
2023-02-25T22:52:23.423Z,5.33
2023-02-25T22:54:25.174Z,4.10
2023-02-25T22:56:27.732Z,3.13
2023-02-25T22:58:30.539Z,2.60
2023-02-25T23:00:41.211Z,3.10
2023-02-25T23:02:43.496Z,2.57
2023-02-25T23:04:45.239Z,2.00
2023-02-25T23:06:47.227Z,1.83
2023-02-25T23:08:49.724Z,2.67
2023-02-25T23:10:51.819Z,4.13
2023-02-25T23:12:56.843Z,2.63
2023-02-25T23:14:58.617Z,2.30
2023-02-25T23:17:00.291Z,2.57
2023-02-25T23:19:04.552Z,2.47
2023-02-25T23:21:12.361Z,2.17
2023-02-25T23:23:17.409Z,2.43
2023-02-25T23:25:19.343Z,2.20
2023-02-25T23:27:21.106Z,2.77
2023-02-25T23:29:22.842Z,2.23
2023-02-25T23:31:30.728Z,2.80
2023-02-25T23:33:33.377Z,2.20
2023-02-25T23:35:36.980Z,2.63
2023-02-25T23:37:38.722Z,2.47
2023-02-25T23:39:40.520Z,2.20
2023-02-25T23:41:42.510Z,2.73
2023-02-25T23:43:44.199Z,3.00
2023-02-25T23:45:47.123Z,2.30
2023-02-25T23:47:49.212Z,2.83
2023-02-25T23:49:50.980Z,3.67
2023-02-25T23:51:52.680Z,3.00
2023-02-25T23:53:56.055Z,3.23
2023-02-25T23:55:57.804Z,3.27
2023-02-25T23:58:03.500Z,3.00
